Time;durP1;ratioP1;P1;durP2;ratioP2;P2;SDS_P1;SDS_P2;PMS_P1;PMS_P2;Temp;Humidity;BMP_temperature;BMP_pressure;BME280_temperature;BME280_humidity;BME280_pressure;Samples;Min_cycle;Max_cycle;Signal;HPM_P1;HPM_P2
2022/01/11 00:01:01;;;;;;;38.30;20.50;;;-0.20;99.90;;;;;;5115737;28;20184;-77
2022/01/11 00:03:27;;;;;;;31.77;19.38;;;-0.20;99.90;;;;;;5115531;28;20040;-78
2022/01/11 00:06:08;;;;;;;30.95;18.30;;;-0.20;99.90;;;;;;5115656;28;20054;-77
2022/01/11 00:08:36;;;;;;;33.47;19.20;;;-0.20;99.90;;;;;;5115571;28;20048;-78
2022/01/11 00:11:06;;;;;;;32.40;19.63;;;-0.20;99.90;;;;;;5115498;28;20051;-78
2022/01/11 00:13:36;;;;;;;31.45;18.65;;;-0.10;99.90;;;;;;5115550;28;20479;-78
2022/01/11 00:16:04;;;;;;;20.23;12.80;;;-0.10;99.90;;;;;;5114693;28;20067;-79
2022/01/11 00:18:29;;;;;;;29.67;17.60;;;-0.10;99.90;;;;;;5115335;28;20144;-78
2022/01/11 00:20:55;;;;;;;30.48;17.70;;;-0.10;99.90;;;;;;5098325;28;20491;-78
2022/01/11 00:25:50;;;;;;;35.60;19.40;;;-0.10;99.90;;;;;;5115223;28;20094;-78
2022/01/11 00:28:18;;;;;;;38.28;20.13;;;-0.20;99.90;;;;;;5115010;28;20062;-79
2022/01/11 00:30:46;;;;;;;30.17;17.67;;;-0.20;99.90;;;;;;5115602;28;20040;-77
2022/01/11 00:33:16;;;;;;;31.98;19.20;;;-0.10;99.90;;;;;;5097697;28;20063;-78
2022/01/11 00:35:56;;;;;;;34.38;19.88;;;-0.10;99.90;;;;;;5114960;28;20047;-79
2022/01/11 00:38:25;;;;;;;32.83;18.25;;;-0.20;99.90;;;;;;5114975;28;20276;-77
2022/01/11 00:40:53;;;;;;;35.55;20.45;;;-0.20;99.90;;;;;;5114899;28;20057;-78
2022/01/11 00:43:22;;;;;;;34.13;20.13;;;-0.20;99.90;;;;;;5114809;28;20404;-79
2022/01/11 00:45:49;;;;;;;33.28;18.15;;;-0.20;99.90;;;;;;5115507;28;20044;-79
2022/01/11 00:48:15;;;;;;;29.35;18.70;;;-0.20;99.90;;;;;;5114730;28;20048;-80
2022/01/11 00:50:41;;;;;;;36.80;20.65;;;-0.20;99.90;;;;;;5115493;28;20358;-79
2022/01/11 00:53:09;;;;;;;39.30;20.88;;;-0.20;99.90;;;;;;5114666;28;20087;-79
2022/01/11 00:55:35;;;;;;;33.85;18.83;;;-0.20;99.90;;;;;;5097411;28;20055;-80
2022/01/11 00:58:05;;;;;;;32.63;17.90;;;-0.30;99.90;;;;;;5115417;28;20067;-78
2022/01/11 01:00:36;;;;;;;33.80;17.13;;;-0.20;99.90;;;;;;5114752;28;20444;-78
2022/01/11 01:03:02;;;;;;;34.78;18.27;;;-0.30;99.90;;;;;;5114434;28;20055;-80
2022/01/11 01:05:29;;;;;;;30.40;17.38;;;-0.30;99.90;;;;;;5114463;28;20133;-79
2022/01/11 01:07:55;;;;;;;28.02;16.38;;;-0.30;99.90;;;;;;5114972;28;20048;-80
2022/01/11 01:10:34;;;;;;;31.35;16.63;;;-0.30;99.90;;;;;;5113920;28;20426;-77
2022/01/11 01:13:01;;;;;;;26.50;14.60;;;-0.30;99.90;;;;;;5114095;28;20054;-78
2022/01/11 01:15:27;;;;;;;30.17;18.05;;;-0.30;99.90;;;;;;5114020;28;20236;-79
2022/01/11 01:17:53;;;;;;;34.75;18.08;;;-0.30;99.90;;;;;;5113829;28;20061;-78
2022/01/11 01:20:20;;;;;;;34.28;20.00;;;-0.30;99.90;;;;;;5114221;28;20044;-78
2022/01/11 01:22:50;;;;;;;40.38;21.13;;;-0.40;99.90;;;;;;5097019;28;20472;-77
2022/01/11 01:25:17;;;;;;;35.67;18.63;;;-0.30;99.90;;;;;;5114091;28;20108;-79
2022/01/11 01:27:42;;;;;;;37.70;19.58;;;-0.40;99.90;;;;;;5096895;28;20046;-78
2022/01/11 01:30:09;;;;;;;30.63;17.02;;;-0.30;99.90;;;;;;5131182;27;20040;-79
2022/01/11 01:32:35;;;;;;;36.65;18.92;;;-0.30;99.90;;;;;;5113779;28;20077;-78
2022/01/11 01:35:04;;;;;;;31.08;15.70;;;-0.40;99.90;;;;;;5108370;28;20417;-77
2022/01/11 01:37:30;;;;;;;33.78;17.98;;;-0.30;99.90;;;;;;5113366;28;20059;-78
2022/01/11 01:39:56;;;;;;;33.50;18.40;;;-0.30;99.90;;;;;;5113856;28;20047;-79
2022/01/11 01:42:24;;;;;;;33.78;19.23;;;-0.30;99.90;;;;;;5109619;28;20078;-79
2022/01/11 01:44:51;;;;;;;34.75;19.00;;;-0.30;99.90;;;;;;5113649;28;20055;-80
2022/01/11 01:47:16;;;;;;;43.95;19.55;;;-0.30;99.90;;;;;;5114095;28;20055;-78
2022/01/11 01:49:42;;;;;;;35.65;18.73;;;-0.30;99.90;;;;;;5113628;28;20059;-78
2022/01/11 01:52:08;;;;;;;37.47;18.98;;;-0.30;99.90;;;;;;5113376;28;20448;-79
2022/01/11 01:54:34;;;;;;;31.38;17.42;;;-0.30;99.90;;;;;;5113294;28;20456;-78
2022/01/11 01:57:00;;;;;;;34.25;18.30;;;-0.30;99.90;;;;;;5113912;28;20089;-79
2022/01/11 01:59:27;;;;;;;35.30;18.60;;;-0.20;99.90;;;;;;5113314;28;20050;-78
2022/01/11 02:01:53;;;;;;;38.28;21.35;;;-0.20;99.90;;;;;;5096363;28;20044;-78
2022/01/11 02:04:19;;;;;;;36.85;19.73;;;-0.20;99.90;;;;;;5097068;28;20104;-78
2022/01/11 02:06:47;;;;;;;33.92;18.35;;;-0.20;99.90;;;;;;5113093;28;20039;-78
2022/01/11 02:09:15;;;;;;;38.38;19.75;;;-0.10;99.90;;;;;;5113145;28;20098;-77
2022/01/11 02:11:41;;;;;;;39.42;18.23;;;-0.20;99.90;;;;;;5113226;28;20051;-79
2022/01/11 02:14:07;;;;;;;41.05;20.77;;;-0.10;99.90;;;;;;5113081;28;20120;-78
2022/01/11 02:16:33;;;;;;;45.42;21.25;;;-0.10;99.90;;;;;;5112590;28;20067;-78
2022/01/11 02:18:59;;;;;;;36.05;18.50;;;-0.10;99.90;;;;;;5112808;28;20065;-77
2022/01/11 02:21:25;;;;;;;37.42;20.48;;;-0.10;99.90;;;;;;5112821;28;20058;-78
2022/01/11 02:23:51;;;;;;;43.83;20.50;;;-0.10;99.90;;;;;;5112820;28;20035;-79
2022/01/11 02:26:17;;;;;;;37.92;19.73;;;-0.10;99.90;;;;;;5112950;28;20217;-78
2022/01/11 02:28:43;;;;;;;36.75;18.73;;;-0.10;99.90;;;;;;5113296;28;20039;-78
2022/01/11 02:31:12;;;;;;;38.75;20.45;;;0.00;99.90;;;;;;5112814;28;20118;-78
2022/01/11 02:33:44;;;;;;;43.47;20.20;;;0.00;99.90;;;;;;5112580;28;20048;-77
2022/01/11 02:36:26;;;;;;;40.72;19.73;;;0.00;99.90;;;;;;5112619;28;20051;-79
2022/01/11 02:38:53;;;;;;;42.72;20.05;;;0.00;99.90;;;;;;5112671;28;20048;-78
2022/01/11 02:41:20;;;;;;;42.28;20.23;;;0.00;99.90;;;;;;5112555;28;20115;-80
2022/01/11 02:43:48;;;;;;;47.03;23.15;;;0.00;99.90;;;;;;5113150;28;20460;-79
2022/01/11 02:46:15;;;;;;;42.10;21.67;;;0.00;99.90;;;;;;5112421;28;20456;-78
2022/01/11 02:48:41;;;;;;;41.45;21.83;;;0.00;99.90;;;;;;5112268;28;20172;-78
2022/01/11 02:51:08;;;;;;;45.72;21.17;;;0.00;99.90;;;;;;5112522;28;20138;-78
2022/01/11 02:53:51;;;;;;;43.65;22.50;;;0.00;99.90;;;;;;5112362;28;20049;-78
2022/01/11 02:56:18;;;;;;;43.55;21.15;;;0.00;99.90;;;;;;5112268;28;20051;-77
2022/01/11 02:58:45;;;;;;;48.50;22.60;;;0.10;99.90;;;;;;5112127;28;20040;-79
2022/01/11 03:01:12;;;;;;;39.15;20.05;;;0.10;99.90;;;;;;5095214;28;20057;-77
2022/01/11 03:03:38;;;;;;;45.65;22.80;;;0.10;99.90;;;;;;5112213;28;20067;-79
2022/01/11 03:06:06;;;;;;;43.10;21.88;;;0.10;99.90;;;;;;5112771;28;20054;-78
2022/01/11 03:08:34;;;;;;;44.92;22.77;;;0.10;99.90;;;;;;5112088;28;20116;-79
2022/01/11 03:11:00;;;;;;;46.30;21.58;;;0.10;99.90;;;;;;5112265;28;20457;-79
2022/01/11 03:13:26;;;;;;;40.17;22.52;;;0.20;99.90;;;;;;5108205;28;20120;-79
2022/01/11 03:15:53;;;;;;;45.30;21.95;;;0.20;99.90;;;;;;5111764;28;20460;-80
2022/01/11 03:18:20;;;;;;;49.03;24.67;;;0.20;99.90;;;;;;5095655;28;20047;-78
2022/01/11 03:20:48;;;;;;;39.55;19.55;;;0.20;99.90;;;;;;5112112;28;20140;-78
2022/01/11 03:23:16;;;;;;;45.35;21.42;;;0.20;99.90;;;;;;5111962;28;20048;-78
2022/01/11 03:25:42;;;;;;;46.65;21.10;;;0.30;99.90;;;;;;5111949;28;20058;-78
2022/01/11 03:28:09;;;;;;;47.55;22.77;;;0.20;99.90;;;;;;5111586;28;20499;-77
2022/01/11 03:30:35;;;;;;;54.15;24.27;;;0.20;99.90;;;;;;5094965;28;20052;-79
2022/01/11 03:33:02;;;;;;;55.08;24.45;;;0.20;99.90;;;;;;5114105;28;20035;-79
2022/01/11 03:35:29;;;;;;;53.15;24.17;;;0.20;99.90;;;;;;5115987;28;20063;-80
2022/01/11 03:37:55;;;;;;;43.83;22.60;;;0.20;99.90;;;;;;5115822;28;20051;-78
2022/01/11 03:40:23;;;;;;;47.80;20.60;;;0.20;99.90;;;;;;5115626;28;20350;-78
2022/01/11 03:42:50;;;;;;;37.90;19.88;;;0.20;99.90;;;;;;5116095;28;20067;-78
2022/01/11 03:45:21;;;;;;;48.55;22.52;;;0.30;99.90;;;;;;5115931;28;20051;-78
2022/01/11 03:47:48;;;;;;;33.35;17.13;;;0.30;99.90;;;;;;5098895;28;20144;-79
2022/01/11 03:50:14;;;;;;;52.30;21.63;;;0.30;99.90;;;;;;5115576;28;20490;-77
2022/01/11 03:52:42;;;;;;;42.20;19.40;;;0.30;99.90;;;;;;5115771;28;20051;-80
2022/01/11 03:55:13;;;;;;;45.03;22.40;;;0.30;99.90;;;;;;5094705;28;20058;-78
2022/01/11 03:57:40;;;;;;;44.35;21.27;;;0.30;99.90;;;;;;5115422;28;20469;-79
2022/01/11 04:00:14;;;;;;;45.55;23.15;;;0.30;99.90;;;;;;5098712;28;20115;-78
2022/01/11 04:02:41;;;;;;;49.03;22.73;;;0.30;99.90;;;;;;5115837;28;20364;-78
2022/01/11 04:05:07;;;;;;;36.17;17.42;;;0.30;99.90;;;;;;5099103;28;20456;-80
2022/01/11 04:07:33;;;;;;;50.33;23.92;;;0.40;99.90;;;;;;5115331;28;20453;-79
2022/01/11 04:10:00;;;;;;;44.38;21.10;;;0.40;99.90;;;;;;5115401;28;20324;-78
2022/01/11 04:12:27;;;;;;;44.50;20.40;;;0.40;99.90;;;;;;5115370;28;20131;-78
2022/01/11 04:14:52;;;;;;;52.67;21.50;;;0.40;99.90;;;;;;5115265;28;20047;-78
2022/01/11 04:17:19;;;;;;;42.20;17.08;;;0.40;99.90;;;;;;5115109;28;20435;-80
2022/01/11 04:19:44;;;;;;;50.38;23.38;;;0.40;99.90;;;;;;5115278;28;20400;-78
2022/01/11 04:22:10;;;;;;;49.63;20.50;;;0.50;99.90;;;;;;5115229;28;20044;-80
2022/01/11 04:24:36;;;;;;;46.00;20.75;;;0.50;99.90;;;;;;5115287;28;20040;-78
2022/01/11 04:27:02;;;;;;;49.80;21.73;;;0.50;99.90;;;;;;5115177;28;20052;-79
2022/01/11 04:29:28;;;;;;;42.65;19.55;;;0.50;99.90;;;;;;5115005;28;20040;-78
2022/01/11 04:31:53;;;;;;;49.05;19.35;;;0.50;99.90;;;;;;5115131;28;20067;-80
2022/01/11 04:34:19;;;;;;;49.80;22.08;;;0.50;99.90;;;;;;5114954;28;20373;-78
2022/01/11 04:36:45;;;;;;;47.40;19.98;;;0.50;99.90;;;;;;5114931;28;20043;-79
2022/01/11 04:39:13;;;;;;;50.90;22.02;;;0.40;99.90;;;;;;5115520;28;20479;-78
2022/01/11 04:41:40;;;;;;;41.35;19.67;;;0.40;99.90;;;;;;5098037;28;20122;-79
2022/01/11 04:44:06;;;;;;;43.60;18.85;;;0.40;99.90;;;;;;5097158;28;20471;-78
2022/01/11 04:46:32;;;;;;;43.47;20.83;;;0.40;99.90;;;;;;5131963;27;20468;-79
2022/01/11 04:49:00;;;;;;;37.50;15.73;;;0.40;99.90;;;;;;5097782;28;20050;-79
2022/01/11 04:51:26;;;;;;;39.42;16.40;;;0.40;99.90;;;;;;5131691;27;20052;-79
2022/01/11 04:53:53;;;;;;;47.75;20.00;;;0.40;99.90;;;;;;5114788;28;20051;-78
2022/01/11 04:56:19;;;;;;;45.40;20.58;;;0.40;99.90;;;;;;5114510;28;20418;-78
2022/01/11 04:58:45;;;;;;;37.17;19.33;;;0.40;99.90;;;;;;5114677;28;20509;-79
2022/01/11 05:01:11;;;;;;;50.90;21.40;;;0.40;99.90;;;;;;5114462;28;20051;-78
2022/01/11 05:03:36;;;;;;;41.22;19.55;;;0.40;99.90;;;;;;5114534;28;20369;-79
2022/01/11 05:06:04;;;;;;;29.27;14.10;;;0.40;99.90;;;;;;5114184;28;20403;-78
2022/01/11 05:08:30;;;;;;;40.05;18.75;;;0.30;99.90;;;;;;5114438;28;20051;-79
2022/01/11 05:10:56;;;;;;;42.45;20.00;;;0.30;99.90;;;;;;5114255;28;20044;-80
2022/01/11 05:13:22;;;;;;;39.92;18.63;;;0.30;99.90;;;;;;5114853;28;20050;-78
2022/01/11 05:15:48;;;;;;;35.45;19.27;;;0.30;99.90;;;;;;5130974;27;20108;-79
2022/01/11 05:18:15;;;;;;;41.92;18.98;;;0.30;99.90;;;;;;5114253;28;20130;-78
2022/01/11 05:20:41;;;;;;;40.13;15.73;;;0.30;99.90;;;;;;5113963;28;20473;-78
2022/01/11 05:23:08;;;;;;;36.63;16.70;;;0.20;99.90;;;;;;5113940;28;20051;-80
2022/01/11 05:25:34;;;;;;;29.35;12.73;;;0.20;99.90;;;;;;5114090;28;20039;-80
2022/01/11 05:28:00;;;;;;;37.08;16.33;;;0.20;99.90;;;;;;5114190;28;20047;-79
2022/01/11 05:30:27;;;;;;;31.48;15.18;;;0.30;99.90;;;;;;5113732;28;20043;-78
2022/01/11 05:32:53;;;;;;;30.92;14.27;;;0.20;99.90;;;;;;5113893;28;20101;-80
2022/01/11 05:35:20;;;;;;;32.85;14.20;;;0.20;99.90;;;;;;5113754;28;20481;-79
2022/01/11 05:37:47;;;;;;;37.65;16.23;;;0.20;99.90;;;;;;5113614;28;20044;-78
2022/01/11 05:40:15;;;;;;;32.78;14.77;;;0.20;99.90;;;;;;5113762;28;20372;-78
2022/01/11 05:42:42;;;;;;;26.10;11.50;;;0.20;99.90;;;;;;5113834;28;20035;-78
2022/01/11 05:45:09;;;;;;;28.95;13.43;;;0.20;99.90;;;;;;5113585;28;20138;-78
2022/01/11 05:47:35;;;;;;;23.33;10.90;;;0.20;99.90;;;;;;5113560;28;20047;-78
2022/01/11 05:50:03;;;;;;;23.90;10.98;;;0.20;99.90;;;;;;5113418;28;20055;-80
2022/01/11 05:52:30;;;;;;;27.73;12.30;;;0.10;99.90;;;;;;5096468;28;20086;-80
2022/01/11 05:54:55;;;;;;;26.08;12.05;;;0.10;99.90;;;;;;5113291;28;20051;-79
2022/01/11 05:57:21;;;;;;;27.92;12.18;;;0.10;99.90;;;;;;5112252;28;20316;-80
2022/01/11 05:59:48;;;;;;;29.27;13.57;;;0.10;99.90;;;;;;5113171;28;20067;-78
2022/01/11 06:02:14;;;;;;;32.33;16.95;;;0.10;99.90;;;;;;5114152;28;20374;-78
2022/01/11 06:04:40;;;;;;;31.55;15.13;;;0.00;99.90;;;;;;5096996;28;20047;-79
2022/01/11 06:07:06;;;;;;;22.48;10.15;;;0.00;99.90;;;;;;5113149;28;20096;-79
2022/01/11 06:09:31;;;;;;;32.65;15.52;;;-0.10;99.90;;;;;;5113251;28;20043;-78
2022/01/11 06:11:57;;;;;;;23.20;12.45;;;-0.10;99.90;;;;;;5113102;28;20051;-79
2022/01/11 06:14:24;;;;;;;32.85;15.55;;;-0.20;99.90;;;;;;5096119;28;20357;-79
2022/01/11 06:16:49;;;;;;;34.63;13.23;;;-0.20;99.90;;;;;;5112265;28;20496;-79
2022/01/11 06:19:15;;;;;;;25.98;13.10;;;-0.20;99.90;;;;;;5112982;28;20069;-79
2022/01/11 06:21:41;;;;;;;27.00;13.77;;;-0.20;99.90;;;;;;5112963;28;20051;-78
2022/01/11 06:24:10;;;;;;;23.90;12.40;;;-0.20;99.90;;;;;;5095757;28;20051;-78
2022/01/11 06:26:36;;;;;;;35.90;15.88;;;-0.20;99.90;;;;;;5112862;28;20048;-80
2022/01/11 06:29:02;;;;;;;36.10;13.93;;;-0.20;99.90;;;;;;5112855;28;20054;-79
2022/01/11 06:31:30;;;;;;;13.27;6.90;;;-0.20;99.90;;;;;;5112624;28;20044;-79
2022/01/11 06:33:56;;;;;;;29.73;14.73;;;-0.20;99.90;;;;;;5113139;28;20085;-78
2022/01/11 06:36:22;;;;;;;27.13;11.25;;;-0.20;99.90;;;;;;5112398;28;20108;-78
2022/01/11 06:38:48;;;;;;;32.15;15.63;;;-0.20;99.90;;;;;;5112416;28;20547;-78
2022/01/11 06:41:15;;;;;;;33.83;15.50;;;-0.30;99.90;;;;;;5112596;28;20571;-78
2022/01/11 06:43:41;;;;;;;33.90;15.43;;;-0.30;99.90;;;;;;5107158;28;20428;-79
2022/01/11 06:46:06;;;;;;;35.53;16.58;;;-0.30;99.90;;;;;;5112407;28;20091;-78
2022/01/11 06:48:35;;;;;;;21.77;10.45;;;-0.30;99.90;;;;;;5129677;27;20130;-81
2022/01/11 06:51:01;;;;;;;28.95;13.82;;;-0.30;99.90;;;;;;5112075;28;20052;-78
2022/01/11 06:53:32;;;;;;;28.42;13.57;;;-0.30;99.90;;;;;;5095477;28;20094;-80
2022/01/11 06:55:58;;;;;;;34.60;15.35;;;-0.30;99.90;;;;;;5113039;28;20047;-79
2022/01/11 06:58:24;;;;;;;21.92;10.88;;;-0.30;99.90;;;;;;5113958;28;20270;-80
2022/01/11 07:00:50;;;;;;;28.00;14.75;;;-0.20;99.90;;;;;;5128968;27;20522;-77
2022/01/11 07:03:16;;;;;;;28.80;12.65;;;-0.30;99.90;;;;;;5112386;28;20039;-78
2022/01/11 07:05:42;;;;;;;28.15;14.10;;;-0.30;99.90;;;;;;5111475;28;20055;-79
2022/01/11 07:08:09;;;;;;;27.25;11.38;;;-0.20;99.90;;;;;;5093047;28;20040;-79
2022/01/11 07:10:36;;;;;;;24.42;12.80;;;-0.20;99.90;;;;;;5111799;28;20048;-79
2022/01/11 07:13:02;;;;;;;24.10;12.55;;;-0.20;99.90;;;;;;5111886;28;20047;-78
2022/01/11 07:15:29;;;;;;;29.60;16.35;;;-0.20;99.90;;;;;;5095501;28;20144;-79
2022/01/11 07:17:56;;;;;;;28.40;14.55;;;-0.20;99.90;;;;;;5112403;28;20423;-79
2022/01/11 07:20:23;;;;;;;28.48;12.10;;;-0.20;99.90;;;;;;5095187;28;20092;-80
2022/01/11 07:22:49;;;;;;;25.52;11.93;;;-0.20;99.90;;;;;;5111942;28;20036;-79
2022/01/11 07:25:15;;;;;;;32.97;15.30;;;-0.20;99.90;;;;;;5112943;28;20059;-78
2022/01/11 07:27:41;;;;;;;29.05;14.15;;;-0.20;99.90;;;;;;5115357;28;20039;-79
2022/01/11 07:30:08;;;;;;;28.52;12.85;;;-0.20;99.90;;;;;;5097927;28;20043;-78
2022/01/11 07:32:35;;;;;;;37.30;18.55;;;-0.20;99.90;;;;;;5114634;28;20040;-80
2022/01/11 07:35:03;;;;;;;30.13;13.05;;;-0.20;99.90;;;;;;5114848;28;20510;-80
2022/01/11 07:37:29;;;;;;;26.23;10.55;;;-0.20;99.90;;;;;;5097691;28;20407;-78
2022/01/11 07:39:55;;;;;;;31.23;14.75;;;-0.20;99.90;;;;;;5098081;28;20047;-79
2022/01/11 07:42:22;;;;;;;20.08;9.95;;;-0.20;99.90;;;;;;5114621;28;20043;-79
2022/01/11 07:44:51;;;;;;;32.25;15.32;;;-0.10;99.90;;;;;;5115322;28;20047;-79
2022/01/11 07:47:20;;;;;;;37.25;16.40;;;-0.10;99.90;;;;;;5099018;28;20375;-79
2022/01/11 07:49:49;;;;;;;25.00;10.83;;;-0.10;99.90;;;;;;5116397;28;20541;-80
2022/01/11 07:52:15;;;;;;;24.63;12.00;;;-0.10;99.90;;;;;;5115940;28;20489;-79
2022/01/11 07:54:41;;;;;;;34.35;14.68;;;-0.10;99.90;;;;;;5115108;28;20055;-79
2022/01/11 07:57:07;;;;;;;35.13;15.35;;;-0.10;99.90;;;;;;5114419;28;20388;-80
2022/01/11 07:59:33;;;;;;;27.38;13.15;;;-0.10;99.90;;;;;;5095294;28;20205;-77
2022/01/11 08:01:59;;;;;;;25.10;12.23;;;-0.10;99.90;;;;;;5113611;28;20531;-79
2022/01/11 08:04:30;;;;;;;27.85;12.20;;;-0.10;99.90;;;;;;5111696;28;20048;-80
2022/01/11 08:06:57;;;;;;;18.85;9.88;;;-0.10;99.90;;;;;;5094202;28;20061;-79
2022/01/11 08:09:23;;;;;;;31.52;15.43;;;-0.10;99.90;;;;;;5111449;28;20107;-79
2022/01/11 08:11:50;;;;;;;23.75;9.82;;;-0.10;99.90;;;;;;5094072;28;20126;-79
2022/01/11 08:14:17;;;;;;;39.15;16.75;;;-0.10;99.90;;;;;;5111452;28;20542;-77
2022/01/11 08:16:42;;;;;;;40.10;18.27;;;-0.10;99.90;;;;;;5110835;28;20068;-79
2022/01/11 08:19:08;;;;;;;38.15;17.02;;;-0.10;99.90;;;;;;5114634;28;20372;-81
2022/01/11 08:21:34;;;;;;;28.77;12.98;;;-0.10;99.90;;;;;;5102406;28;20061;-80
2022/01/11 08:24:00;;;;;;;39.15;14.98;;;-0.10;99.90;;;;;;5118965;28;20099;-79
2022/01/11 08:26:26;;;;;;;43.85;18.20;;;0.00;99.90;;;;;;5118824;28;20040;-78
2022/01/11 08:28:51;;;;;;;28.45;16.17;;;0.00;99.90;;;;;;5097790;28;20112;-79
2022/01/11 08:31:19;;;;;;;29.60;15.73;;;0.00;99.90;;;;;;5102176;28;20062;-78
2022/01/11 08:33:46;;;;;;;48.85;21.77;;;0.00;99.90;;;;;;5119376;28;20048;-79
2022/01/11 08:36:11;;;;;;;31.30;14.57;;;0.00;99.90;;;;;;5101542;28;20056;-78
2022/01/11 08:38:38;;;;;;;39.08;16.23;;;0.00;99.90;;;;;;5118715;28;20146;-81
2022/01/11 08:41:05;;;;;;;34.80;13.77;;;0.00;99.90;;;;;;5101003;28;20047;-80
2022/01/11 08:43:31;;;;;;;25.70;12.23;;;0.10;99.90;;;;;;5118674;28;20176;-80
2022/01/11 08:45:57;;;;;;;32.67;15.05;;;0.00;99.90;;;;;;5118021;28;20466;-80
2022/01/11 08:48:23;;;;;;;30.77;15.32;;;0.10;99.90;;;;;;5102370;28;20039;-80
2022/01/11 08:50:53;;;;;;;35.70;16.77;;;0.10;99.90;;;;;;5102339;28;20142;-79
2022/01/11 08:53:20;;;;;;;31.98;13.18;;;0.10;99.90;;;;;;5118618;28;20056;-81
2022/01/11 08:55:50;;;;;;;45.55;20.70;;;0.10;99.90;;;;;;5102827;28;20419;-80
2022/01/11 08:58:20;;;;;;;21.50;11.98;;;0.10;99.90;;;;;;5119637;28;20092;-78
2022/01/11 09:00:49;;;;;;;49.33;23.98;;;0.10;99.90;;;;;;5118695;28;20050;-84
2022/01/11 09:03:48;;;;;;;33.45;15.77;;;0.20;99.90;;;;;;5107969;28;20063;-83
2022/01/11 09:06:13;;;;;;;36.92;17.00;;;0.20;99.90;;;;;;5119083;28;20040;-79
2022/01/11 09:08:39;;;;;;;32.90;14.48;;;0.20;99.90;;;;;;5117942;28;20100;-80
2022/01/11 09:11:06;;;;;;;31.42;14.70;;;0.20;99.90;;;;;;5117591;28;20075;-79
2022/01/11 09:13:32;;;;;;;40.17;18.92;;;0.20;99.90;;;;;;5098946;28;20055;-79
2022/01/11 09:15:58;;;;;;;35.97;15.38;;;0.30;99.90;;;;;;5086457;28;20043;-79
2022/01/11 09:18:24;;;;;;;28.92;14.50;;;0.30;99.90;;;;;;5117196;28;20054;-81
2022/01/11 09:20:50;;;;;;;35.92;17.77;;;0.30;99.90;;;;;;5101366;28;20112;-81
2022/01/11 09:23:15;;;;;;;30.55;14.98;;;0.30;99.90;;;;;;5116510;28;20077;-80
2022/01/11 09:25:42;;;;;;;30.05;13.55;;;0.30;99.90;;;;;;5114134;28;20048;-80
2022/01/11 09:28:07;;;;;;;40.95;18.73;;;0.40;99.90;;;;;;5116247;28;20059;-77
2022/01/11 09:30:33;;;;;;;32.67;15.65;;;0.40;99.90;;;;;;5101513;28;20063;-80
2022/01/11 09:32:59;;;;;;;41.35;17.98;;;0.40;99.90;;;;;;5116848;28;20468;-81
2022/01/11 09:35:25;;;;;;;36.60;17.25;;;0.40;99.90;;;;;;5117229;28;20050;-81
2022/01/11 09:37:51;;;;;;;37.75;16.90;;;0.50;99.90;;;;;;5130106;27;20111;-80
2022/01/11 09:40:17;;;;;;;43.33;19.70;;;0.50;99.90;;;;;;5101735;28;20123;-80
2022/01/11 09:42:43;;;;;;;34.85;16.65;;;0.50;99.90;;;;;;5101430;28;20075;-79
2022/01/11 09:45:11;;;;;;;35.40;17.75;;;0.60;99.90;;;;;;5135298;27;20093;-80
2022/01/11 09:47:39;;;;;;;23.27;11.20;;;0.60;99.90;;;;;;5099884;28;20130;-81
2022/01/11 09:50:07;;;;;;;40.63;18.88;;;0.70;99.90;;;;;;5118159;28;20042;-77
2022/01/11 09:52:48;;;;;;;36.95;18.08;;;0.80;99.90;;;;;;5099050;28;20044;-83
2022/01/11 09:55:17;;;;;;;33.25;10.65;;;0.90;99.90;;;;;;5099431;28;20039;-79
2022/01/11 09:57:43;;;;;;;40.13;18.10;;;1.10;99.90;;;;;;5114392;28;20111;-81
2022/01/11 10:00:11;;;;;;;22.13;11.38;;;1.30;99.90;;;;;;5095740;28;20044;-81
2022/01/11 10:02:37;;;;;;;34.08;15.65;;;1.40;99.90;;;;;;5112884;28;20097;-77
2022/01/11 10:05:07;;;;;;;29.70;14.70;;;1.40;99.90;;;;;;5130273;27;20044;-80
2022/01/11 10:07:37;;;;;;;23.85;11.52;;;1.50;99.90;;;;;;5109741;28;20116;-79
2022/01/11 10:10:04;;;;;;;19.45;10.52;;;1.60;99.90;;;;;;5095996;28;20112;-78
2022/01/11 10:13:03;;;;;;;35.15;18.02;;;1.80;99.90;;;;;;5112969;28;20123;-79
2022/01/11 10:15:33;;;;;;;24.05;11.95;;;1.80;99.90;;;;;;5115491;28;20313;-78
2022/01/11 10:18:01;;;;;;;18.83;10.05;;;1.90;99.90;;;;;;5099193;28;20048;-79
2022/01/11 10:20:28;;;;;;;29.23;14.32;;;1.90;99.90;;;;;;5113545;28;20044;-79
2022/01/11 10:23:03;;;;;;;27.67;11.95;;;1.90;99.90;;;;;;5112831;28;20043;-81
2022/01/11 10:25:31;;;;;;;32.40;17.65;;;1.80;99.90;;;;;;5112883;28;20044;-79
2022/01/11 10:27:59;;;;;;;28.10;12.73;;;1.80;99.90;;;;;;5112906;28;20062;-79
2022/01/11 10:30:27;;;;;;;22.95;13.88;;;1.80;99.90;;;;;;5112911;28;20413;-79
2022/01/11 10:32:55;;;;;;;27.48;13.88;;;2.30;99.90;;;;;;5095759;28;20460;-81
2022/01/11 10:35:25;;;;;;;26.08;14.30;;;2.80;99.90;;;;;;5112606;28;20126;-79
2022/01/11 10:37:56;;;;;;;24.07;11.27;;;3.10;99.90;;;;;;5095393;28;20380;-79
2022/01/11 10:40:34;;;;;;;28.00;14.85;;;3.10;99.90;;;;;;5112713;28;20677;-80
2022/01/11 10:43:15;;;;;;;25.13;12.55;;;3.00;99.90;;;;;;5112020;28;20043;-79
2022/01/11 10:45:50;;;;;;;15.63;8.20;;;3.00;99.90;;;;;;5113661;28;20126;-84
2022/01/11 10:48:25;;;;;;;23.95;12.38;;;3.20;99.90;;;;;;5130056;27;20535;-78
2022/01/11 10:50:59;;;;;;;15.65;8.32;;;3.90;99.90;;;;;;5112317;28;20546;-79
2022/01/11 10:53:38;;;;;;;26.00;13.50;;;4.80;99.90;;;;;;5112122;28;20112;-85
2022/01/11 10:56:06;;;;;;;22.52;11.75;;;4.90;99.90;;;;;;5095815;28;20044;-79
2022/01/11 10:58:35;;;;;;;24.02;11.77;;;4.50;99.90;;;;;;5096071;28;20601;-79
2022/01/11 11:01:04;;;;;;;24.05;12.50;;;4.20;99.90;;;;;;5096309;28;20043;-80
2022/01/11 11:03:32;;;;;;;23.52;11.75;;;4.60;99.90;;;;;;5096325;28;20050;-80
2022/01/11 11:06:10;;;;;;;23.85;12.55;;;5.20;99.90;;;;;;5112332;28;20486;-78
2022/01/11 11:08:42;;;;;;;25.52;10.68;;;5.40;99.90;;;;;;5112035;28;20376;-79
2022/01/11 11:11:12;;;;;;;25.70;14.60;;;5.50;99.90;;;;;;5095836;28;20131;-79
2022/01/11 11:13:40;;;;;;;21.88;11.65;;;5.30;99.90;;;;;;5112325;28;20094;-80
2022/01/11 11:16:13;;;;;;;20.80;10.73;;;5.10;99.90;;;;;;5111590;28;20358;-80
2022/01/11 11:18:40;;;;;;;20.58;12.50;;;4.80;99.90;;;;;;5094988;28;20047;-81
2022/01/11 11:21:19;;;;;;;24.77;12.90;;;4.50;99.90;;;;;;5094994;28;20448;-79
2022/01/11 11:23:46;;;;;;;26.50;14.95;;;4.20;99.90;;;;;;5111751;28;20044;-80
2022/01/11 11:26:13;;;;;;;26.65;15.90;;;4.00;99.90;;;;;;5095862;28;20047;-81
2022/01/11 11:28:39;;;;;;;26.33;14.55;;;4.00;99.90;;;;;;5096415;28;20055;-80
2022/01/11 11:31:05;;;;;;;24.85;15.27;;;3.90;99.90;;;;;;5095546;28;20135;-78
2022/01/11 11:33:34;;;;;;;24.63;13.52;;;3.90;99.90;;;;;;5112466;28;20315;-81
2022/01/11 11:36:00;;;;;;;22.25;14.10;;;4.00;99.90;;;;;;5112272;28;20036;-79
2022/01/11 11:38:58;;;;;;;25.58;13.27;;;4.00;99.90;;;;;;5094728;28;20047;-82
2022/01/11 11:41:26;;;;;;;27.77;15.60;;;4.10;99.90;;;;;;5089236;28;20043;-80
2022/01/11 11:44:12;;;;;;;23.45;14.13;;;4.10;99.90;;;;;;5091494;28;20055;-82
2022/01/11 11:46:48;;;;;;;25.70;14.55;;;4.20;99.90;;;;;;5095476;28;20059;-80
2022/01/11 11:49:15;;;;;;;25.52;14.90;;;4.20;99.90;;;;;;5095625;28;20135;-79
2022/01/11 11:51:43;;;;;;;21.42;13.73;;;4.20;99.90;;;;;;5095331;28;20476;-79
2022/01/11 11:54:15;;;;;;;25.65;14.05;;;4.20;99.90;;;;;;5115223;28;20454;-80
2022/01/11 11:56:45;;;;;;;23.45;15.15;;;4.30;99.90;;;;;;5116102;28;20456;-80
2022/01/11 11:59:12;;;;;;;24.90;14.48;;;4.20;99.90;;;;;;5100099;28;20341;-79
2022/01/11 12:01:44;;;;;;;23.63;13.32;;;4.30;99.90;;;;;;5099006;28;20453;-79
2022/01/11 12:04:36;;;;;;;27.13;14.32;;;4.30;99.90;;;;;;5098238;28;20538;-79
2022/01/11 12:07:28;;;;;;;25.05;15.60;;;4.20;99.90;;;;;;5099326;28;20079;-81
2022/01/11 12:09:53;;;;;;;24.48;14.85;;;4.10;99.90;;;;;;5115093;28;20066;-82
2022/01/11 12:12:42;;;;;;;24.83;14.73;;;4.10;99.90;;;;;;5115321;28;20048;-79
2022/01/11 12:15:35;;;;;;;25.95;14.18;;;4.10;99.90;;;;;;5098848;28;20050;-82
2022/01/11 12:18:01;;;;;;;26.35;13.70;;;4.00;99.90;;;;;;5097129;28;20047;-81
2022/01/11 12:20:44;;;;;;;20.30;11.75;;;4.00;99.90;;;;;;5115708;28;20052;-82
2022/01/11 12:23:34;;;;;;;22.70;12.90;;;3.90;99.90;;;;;;5099169;28;20035;-80
2022/01/11 12:26:16;;;;;;;20.98;10.82;;;3.80;99.90;;;;;;5113794;28;20081;-79
2022/01/11 12:28:43;;;;;;;24.50;13.85;;;3.80;99.90;;;;;;5098390;28;20453;-81
2022/01/11 12:31:44;;;;;;;23.95;12.55;;;3.70;99.90;;;;;;5115688;28;20205;-82
2022/01/11 12:34:11;;;;;;;25.58;13.68;;;3.70;99.90;;;;;;5052386;28;20051;-80
2022/01/11 12:36:53;;;;;;;22.30;11.15;;;3.60;99.90;;;;;;5095326;28;20423;-81
2022/01/11 12:39:21;;;;;;;21.88;11.43;;;3.70;99.90;;;;;;5077725;28;20059;-79
2022/01/11 12:41:48;;;;;;;23.30;11.65;;;3.70;99.90;;;;;;5078869;28;20047;-82